Timeline UpdatesTrip UpdatesNews PostsPvt PostsTravel TipsAdmin PostsConv PostsFollowed PostsChat RequestsBlog PostsPNR Posts

Disclaimer
Search
 
 
Tue Sep 23, 2014 17:49:51 ISTHomeTrainsΣChainsAtlasPNRForumGalleryNewsFAQTripsMembersLoginFeedback
No Recent News for this Train
Other Trains in the News **new
Latest...
.
Sat Feb 02, 2013 (04:11PM)
⇐ Return Journey: Train# 51188

51187/Bhusaval Katni Passenger (UnReserved)

Time-Table HAS CHANGED.
Sep 04 (5:35AM)
Change Departure Station:
Change Arrival Station:
Post a Train Travel TipPost a Train Travel Tip **new
Post a Comment/Question/Picture/VideoPost a Comment/Question/Picture/Video
Pantry/Catering
???
RSA - Rake Sharing
Rake/Coach Composition
Loco
BSL-ET: BSL/ET WAP-4 ET-KTE: ET/KTE WDM-3A
News    PNR    Forum    Time-Table    Availability    Fare Chart    Map    Arr/Dep History    Trips    Gallery    ΣChains    X/O    Timeline    
Travel Time: 11h 37m    39 halts    Distance: 384 km    Avg Speed: 33 km/hr
Type: Passenger
Zone: CR/Central
Departs @ 15:48 (Avg 42m late)
Platform# ???
SMTWTFS
Pagdhal/PGL 
Arrives @ 03:25 +1 night (Avg 1h 36m late)
Platform# ???
SMTWTFS
Katni Junction/KTE 

39 halts. 45 intermediate Stations between Pagdhal and Katni Junction

Show ALL intermediate Stations  Show Old Time-Table

#CodeStation NameX/OArrivesAvgDepartsAvgHaltPFDay#KmSpeedElevZoneAddress
1BSLBhusaval Junction (8)  -09:30+22--1-258.737208mCRBhusaval 425201, Maharashtra
2DSKDuskheda (2)X  09:41+2909:42+301m--1-252.047213mCRDuskheda Station, Maharashtra
3SAVSavda (2)  09:53+2909:54+301m--1-243.348220mCRSavda, Maharashtra
4NBNimbhora (2)  10:05+2910:06+321m--1-234.655229mCRJalgaon, Maharashtra
5RVRaver (2)  10:17+3210:18+381m--1-224.454242mCRJalgaon, Maharashtra
6WGAWaghodaX  10:29+3710:30+391m--1-214.544259mCRChorwad, Maharashtra
7BAUBurhanpur (2)X  10:44+4010:45+431m21-204.260269mCRBurhanpur, Madhya Pradesh
8AGQAsirgarh Road (2)  10:54+4210:55+451m--1-195.368259mCRState Highway 27, Madhya Pradesh
9CDIChandni (2)X  11:04+4611:05+461m--1-185.147276mCRNepanagar Rd, Madhya Pradesh
10NPNRNepanagar (2)  11:14+4511:15+471m--1-178.050289mCRState Highway 27, Madhya Pradesh
11MWAMandwa (2)X  11:22+4811:23+481m--1-172.260317mCRState Highway 27, Madhya Pradesh
12SXASagphata (2)  11:29+4911:30+491m--1-166.266350mCRKhandwa, Madhya Pradesh
13DGNDongargaon (2)X  11:37+5011:38+501m21-158.591373mCRBorgaon, Madhya Pradesh
14KDKKohdad (2)X  11:43+4711:44+471m--1-150.953344mCRState Highway 15, Madhya Pradesh
15BMABagmar (2)X  11:49+4811:50+531m--1-146.590335mCRState Highway 27, Madhya Pradesh
16BRGJBargaon Gujar (2)X  11:54+5711:55+581m--1-140.57316mCRKhandwa, Madhya Pradesh
17KNWKhandwa Junction (5)X  12:50 12:40+1312:55 12:45+165m--1-135.418310mCRKhandwa, Madhya Pradesh
18MTAMathela (2)  13:05 13:09+2513:06 13:11+261 2m--1-128.063322mWCRKhandwa, Madhya Pradesh
19TLVTalvadiya (2)  13:15 13:19+2713:16 13:21+271 2m--1-119.679308mWCRKhandwa, Madhya Pradesh
20SGBJSurgaon Banjari (2)  13:26 13:30+2713:27 13:32+281 2m--1-107.983298mWCRKhandwa, Madhya Pradesh
21CKKDCharkheda Khurd (2)  13:36 13:40+3013:37 13:42+311 2m--1-96.758274mWCRKhandwa, Madhya Pradesh
22CAERChhanera (2)  13:45 13:49+3113:46 13:51+321 2m--1-89.968283mWCRChhanera, Madhya Pradesh
23BRUDBarud (2)X  13:56 14:00+3213:57 14:02+341 2m--1-79.864273mWCRKhandwa, Madhya Pradesh
24DRHIDagarhkeri (2)X  14:07 14:11+3414:08 14:13+341 2m--1-70.273274mWCRState Highway 15, Madhya Pradesh
25KKNKhirkiya (2)X  14:18 14:22+3214:19 14:24+341 2m21-59.348281mWCRSH 15, Madhya Pradesh
26KROKurawan (2)  14:27 14:32-14:29 14:34-2m--1-52.944297mWCRSH 15, Madhya Pradesh
27BRIBhiringi (2)X  14:39 14:43+2714:40 14:45+281 2m--1-46.252294mWCRSH 15, Madhya Pradesh
28MUOMasangaon (2)  14:47 14:51+2714:48 14:53+281 2m--1-41.159303mWCRSH 15, Madhya Pradesh
29PALPalasner (2)  14:55 14:59+2714:56 15:01+271 2m--1-35.149296mWCRHarda, Madhya Pradesh
30HDHarda (3)X  15:06 15:10+4915:07 15:12+551 2m--1-27.760289mWCRHarda, Madhya Pradesh
31CRKCharkhera (2)  15:15 15:19+3615:16 15:21+411 2m--1-20.761298mWCRBarkalan, Madhya Pradesh
32TBNTimarni (2)X  15:24 15:28+4115:25 15:30+441 2m--1-13.671308mWCRTimarni, Madhya Pradesh
33CGOChhidgaon (2)  15:33 15:38-15:35 15:40-2m--1-4.141309mWCRHarda, Madhya Pradesh
34PGLPagdhal (2)»X  15:42 15:46+4215:43 15:48+421 2m--10.063317mWCRPagdhal, Madhya Pradesh
35BIFBhaironpur (2)X  15:51 15:55+4115:52 15:57+411 2m--17.363322mWCRSH 15, Madhya Pradesh
36BPFBanapura (2)  16:00 16:04+4116:01 16:06+461 2m--114.662314mWCRBanapura, Madhya Pradesh
37DKIDharamkundi (2)X  16:10 16:14+4516:11 16:16+451 2m--122.863314mWCRSH 15, Madhya Pradesh
38KTZKhutwansa (2)  16:19 16:23-16:20 16:25-1 2m--130.242325mWCRSH 15, Madhya Pradesh
39DRADularia (2)O  16:29 16:33+4016:30 16:35+531 2m--135.813318mWCRItarsi, Madhya Pradesh
40ETItarsi Junction (7)XO  17:30+3717:50+3820m--148.163329mWCRItarsi 461111, Madhya Pradesh
41GROGurra (2)  18:00+4618:02+472m--158.660327mWCRItarsi, Madhya Pradesh
42SQLSontalai (2)  18:11+4718:13+582m--167.646329mWCRItarsi, Madhya Pradesh
43BGTABagratawa (2)X  18:22+5318:24+532m--174.571338mWCRBagra Tawa, Madhya Pradesh
44GMDGuramkhedi (2)  18:35+4918:37+492m--187.560337mWCRGuramkhedi, Madhya Pradesh
45SGPSohagpur (2)X  18:47+1:0218:49+1:022m--197.660340mWCRSohagpur, Madhya Pradesh
46SXFSobhapur (2)  18:58-19:00-2m--1106.640338mWCRState Highway 22, Madhya Pradesh
47PPIPipariya (3)X  19:08 19:13+1:1019:09 19:15+1:281 2m31115.365338mWCRPiparia, Madhya Pradesh
48BKHBankhedi (2)  19:24 19:33+1:3619:25 19:35+1:441 2m--1134.771351mWCRBankheri, Madhya Pradesh
49JHTJunehta (2)X  19:33 19:40-19:34 19:42-1 2m--1140.676353mWCRState Highway 22, Madhya Pradesh
50SCKRSalichauka Road (2)X  19:44 19:50+1:4519:45 19:52+1:551 2m--1150.883355mWCRGadarwara, Madhya Pradesh
51GARGadarwara (2)  19:57 20:02+1:5719:58 20:04+2:081 2m11164.7111352mWCRNarsinghpur, Madhya Pradesh
52BNEBohani (2)  20:10 20:11+2:1020:11 20:13+2:251 2m21177.670361mWCRNarsinghpur, Madhya Pradesh
53KFYKarapgaon (2)O  20:20 20:19-20:21-1 2m--1184.643363mWCRNational Highway 26, Madhya Pradesh
54KYKareli (2)X  20:34 20:33+1:2120:35+1:251 2m11193.241361mWCRKareli, Madhya Pradesh
55NUNarsinghpur (2)  20:58+1:1621:00+1:192m11209.058365mWCRNarsimhapur, Madhya Pradesh
56GPCGhatpindrai (2)  21:07 21:06+2:3021:08+2:441 2m--1214.841366mWCRGhatpindra, Madhya Pradesh
57BELDBelkhera (2)  21:17 21:16+2:4321:18+2:431 2m--1220.333367mWCRState Highway 22, Madhya Pradesh
58KKBKarak Bel (2)XO  21:26+2:2321:28+2:272m11224.712375mWCRKarak Bel, Madhya Pradesh
59SRIDShridham (3)  22:38 22:43+1:4922:40 22:45+1:532m21240.288373mWCRShridham, Madhya Pradesh
60BMRBikrampur (2)X  22:53+1:4922:54 22:55+1:501 2m--1251.987353mWCRBikrampur Dist Narsingpur., Madhya Pradesh
61BHTNBhitoni (2)  23:06 23:03+1:5023:07 23:05+2:081 2m--1263.561377mWCRJabalpur, Madhya Pradesh
62BRGTBheraghat (2)X  23:19 23:18+2:0523:20+2:051 2m--1276.616389mWCRBheraghat, Madhya Pradesh
63MMLMadan Mahal (3)  00:03 00:08+1:4000:05 00:10+1:392m32289.78428mWCRJabalpur, Madhya Pradesh
64JBPJabalpur Junction (4)X  00:40 00:35+1:0800:50 00:45+1:1310m22293.031416mWCRJabalpur, Madhya Pradesh
65ADTLAdhartal (2)  01:01+1:3801:03+1:382m--2301.259393mWCRJabalpur, Madhya Pradesh
66DOEDeori (2)  01:12+1:3801:14+1:382m--2310.063392mWCRJabalpur, Madhya Pradesh
67GSPRGosalpur (2)X  01:24+1:3501:26+1:402m--2320.574396mWCRJabalpur, Madhya Pradesh
68SHRSihora Road (2)X  01:35+1:2801:37+1:362m--2331.675388mWCRJabalpur, Madhya Pradesh
69DDCEDundi (2)O  01:49+1:5101:51+1:512m--2346.663415mWCRDundi, Madhya Pradesh
70SBDSleemanabad Road (2)XO  01:59 02:00+1:2402:01+1:242 1m--2356.141434mWCRSleemanabad, Madhya Pradesh
71SNRRSansarpur (2)X  02:11-02:13-2m--2363.019436mWCRNational Highway 7, Madhya Pradesh
72NWRNiwar (2)  02:39 02:38+1:2802:40+1:371 2m--2370.768412mWCRPipraundh, Madhya Pradesh
73MDRRMadhavnagar Road (2)X  02:47-02:49-2m--2378.69398mWCRMadhavnagar, Madhya Pradesh
74KTEKatni Junction (6)•  03:25+1:36---2383.9-387mWCRKatni, Madhya Pradesh
Scroll to Top
Scroll to Bottom